Flight Track Log - Related Links

Times and Time Zones

All times are in EDT time to prevent confusion due to time zone crossing. See the N999TF flight status page for this flight to view local times or setup timezone preferences in your user account.


Time Position Orientation Groundspeed Altitude Reporting Facility
EDT Latitude Longitude Course Direction KTS MPH feet Rate Location/Type
Sat 01:02:48 PM 45.3764 -122.7325 48° Northeast 135 155 3,900  Level Seattle Center
Sat 01:03:18 PM 45.3894 -122.7119 48° Northeast 142 163 4,400 928 Climbing Seattle Center
Sat 01:04:25 PM 45.4253 -122.6850 28° Northeast 143 165 5,400 891 Climbing Seattle Center
Sat 01:05:26 PM 45.4628 -122.6667 19° North 144 166 6,300 836 Climbing Seattle Center
Sat 01:06:27 PM 45.5050 -122.6403 24° Northeast 162 186 7,100 756 Climbing Seattle Center
Sat 01:07:33 PM 45.5383 -122.5897 47° Northeast 166 191 7,900 690 Climbing Seattle Center
Sat 01:08:20 PM 45.5606 -122.5589 44° Northeast 164 189 8,400 722 Climbing Seattle Center
Sat 01:09:21 PM 45.5919 -122.5108 47° Northeast 165 190 9,200 787 Climbing Seattle Center
Sat 01:10:22 PM 45.6317 -122.4525 46° Northeast 171 197 10,000 738 Climbing Seattle Center
Sat 01:11:23 PM 45.6642 -122.4028 47° Northeast 178 205 10,700 492 Climbing Seattle Center
Sat 01:12:24 PM 45.7019 -122.3456 47° Northeast 190 219 11,000 98 Climbing Seattle Center
Sat 01:13:25 PM 45.7419 -122.2842 47° Northeast 212 244 10,900  Descending Seattle Center
Sat 01:14:26 PM 45.7703 -122.2103 61° Northeast 220 253 11,000  Climbing Seattle Center
Sat 01:15:27 PM 45.7944 -122.1319 66° East 217 250 10,900 -49 Descending Seattle Center
Sat 01:16:28 PM 45.8181 -122.0589 65° Northeast 214 246 10,900 49 Level Seattle Center
Sat 01:17:29 PM 45.8381 -121.9678 72° East 208 239 11,000 49 Climbing Seattle Center
Sat 01:18:30 PM 45.8486 -121.9017 77° East 204 235 11,000 -49 Level Seattle Center
Sat 01:19:31 PM 45.8683 -121.8081 73° East 201 231 10,900 -49 Descending Seattle Center
Sat 01:20:32 PM 45.8850 -121.7286 73° East 206 237 10,900 49 Level Seattle Center
Sat 01:21:34 PM 45.9008 -121.6494 74° East 206 237 11,000  Climbing Seattle Center
Sat 01:22:35 PM 45.9172 -121.5689 74° East 210 242 10,900 -49 Descending Seattle Center
Sat 01:23:36 PM 45.9347 -121.4875 73° East 212 244 10,900  Level Seattle Center
Sat 01:24:37 PM 45.9506 -121.4069 74° East 211 243 10,900  Level Seattle Center
Sat 01:25:38 PM 45.9686 -121.3264 72° East 211 243 10,900 49 Level Seattle Center
Sat 01:26:39 PM 45.9997 -121.2572 57° Northeast 211 243 11,000 -49 Climbing Seattle Center
Sat 01:27:40 PM 46.0364 -121.1858 53° Northeast 217 250 10,800 -98 Descending Seattle Center
Sat 01:28:41 PM 46.0706 -121.1181 54° Northeast 215 247 10,800 49 Level Seattle Center
Sat 01:29:42 PM 46.1053 -121.0494 54° Northeast 213 245 10,900 98 Climbing Seattle Center
Sat 01:30:43 PM 46.1392 -120.9806 55° Northeast 212 244 11,000  Climbing Seattle Center
Sat 01:31:44 PM 46.1742 -120.9111 54° Northeast 212 244 10,900  Descending Seattle Center
Sat 01:32:45 PM 46.2194 -120.8244 53° Northeast 216 249 11,000  Climbing Seattle Center
Sat 01:33:46 PM 46.2533 -120.7569 54° Northeast 207 238 10,900 -49 Descending Seattle Center
Sat 01:34:47 PM 46.2889 -120.6875 53° Northeast 214 246 10,900 49 Level Seattle Center
Sat 01:35:48 PM 46.3239 -120.6164 55° Northeast 217 250 11,000  Climbing Seattle Center
Sat 01:36:49 PM 46.3583 -120.5472 54° Northeast 214 246 10,900 -49 Descending Seattle Center
Sat 01:37:50 PM 46.3928 -120.4767 55° Northeast 215 247 10,900  Level Seattle Center
Sat 01:38:52 PM 46.4275 -120.4067 54° Northeast 214 246 10,900  Level Seattle Center
Sat 01:39:53 PM 46.4614 -120.3369 55° Northeast 212 244 10,900  Level Seattle Center
Sat 01:40:54 PM 46.4956 -120.2681 54° Northeast 211 243 10,900 49 Level Seattle Center
Sat 01:41:55 PM 46.5294 -120.1978 55° Northeast 212 244 11,000  Climbing Seattle Center
Sat 01:42:56 PM 46.5631 -120.1261 56° Northeast 214 246 10,900 -49 Descending Seattle Center
Sat 01:43:57 PM 46.6044 -120.0411 55° Northeast 213 245 10,900  Level Seattle Center
Sat 01:44:58 PM 46.6397 -119.9717 53° Northeast 215 247 10,900  Level Seattle Center
Sat 01:46:00 PM 46.6739 -119.9011 55° Northeast 215 247 10,900  Level Seattle Center
Sat 01:47:01 PM 46.7078 -119.8308 55° Northeast 213 245 10,900  Level Seattle Center
Sat 01:48:02 PM 46.7428 -119.7608 54° Northeast 214 246 10,900 -49 Level Seattle Center
Sat 01:49:03 PM 46.7775 -119.6911 54° Northeast 216 249 10,800  Descending Seattle Center
Sat 01:50:04 PM 46.8108 -119.6206 55° Northeast 212 244 10,900  Climbing Seattle Center
Sat 01:51:05 PM 46.8450 -119.5481 55° Northeast 215 247 10,800 -49 Descending Seattle Center
Sat 01:52:07 PM 46.8797 -119.4769 54° Northeast 217 250 10,800  Level Seattle Center
Sat 01:53:08 PM 46.9133 -119.4047 56° Northeast 216 249 10,800  Level Seattle Center
Sat 01:54:09 PM 46.9553 -119.3194 54° Northeast 215 247 10,800 49 Level Seattle Center
Sat 01:55:10 PM 46.9889 -119.2481 55° Northeast 215 247 10,900 49 Climbing Seattle Center
Sat 01:56:11 PM 47.0228 -119.1764 55° Northeast 216 249 10,900  Level Seattle Center
Sat 01:57:12 PM 47.0583 -119.1022 55° Northeast 211 243 10,900  Level Seattle Center
Sat 01:58:14 PM 47.0911 -119.0308 56° Northeast 213 245 10,900 48 Level Seattle Center
Sat 01:59:16 PM 47.1272 -118.9553 55° Northeast 213 245 11,000  Climbing Seattle Center
Sat 02:00:17 PM 47.1603 -118.8850 55° Northeast 210 242 10,900 -49 Descending Seattle Center
Sat 02:01:18 PM 47.1900 -118.8236 55° Northeast 213 245 10,900  Level Seattle Center
Sat 02:02:20 PM 47.2222 -118.7511 57° Northeast 213 245 10,900  Level Seattle Center
Sat 02:03:21 PM 47.2617 -118.6669 55° Northeast 210 242 10,900  Level Seattle Center
Sat 02:04:22 PM 47.2950 -118.5978 55° Northeast 207 238 10,900  Level Seattle Center
Sat 02:05:23 PM 47.3267 -118.5278 56° Northeast 202 232 10,900  Level Seattle Center
Sat 02:06:24 PM 47.3586 -118.4581 56° Northeast 206 237 10,900 -49 Level Seattle Center
Sat 02:07:25 PM 47.3892 -118.3906 56° Northeast 202 232 10,800 -439 Descending Seattle Center
Sat 02:08:27 PM 47.4194 -118.3233 56° Northeast 201 231 10,000 -732 Descending Seattle Center
Sat 02:09:28 PM 47.4389 -118.2483 69° East 197 227 9,300 -787 Descending Seattle Center
Sat 02:10:29 PM 47.4544 -118.1717 73° East 196 226 8,400 -934 Descending Seattle Center
Sat 02:11:30 PM 47.4708 -118.0925 73° East 202 232 7,400 -927 Descending Seattle Center
Sat 02:12:32 PM 47.4867 -118.0153 73° East 198 228 6,500 -976 Descending Seattle Center
Sat 02:13:33 PM 47.5053 -117.9250 73° East 192 221 5,400 -787 Descending Seattle Center
Sat 02:14:34 PM 47.5267 -117.8553 66° East 187 215 4,900 -244 Descending Seattle Center
Sat 02:15:36 PM 47.5464 -117.7894 66° East 177 204 4,900 -146 Level Seattle Center
Sat 02:16:37 PM 47.5658 -117.7253 66° East 172 198 4,600 -295 Descending Seattle Center
Sat 02:17:38 PM 47.5956 -117.6678 53° Northeast 171 197 4,300 -639 Descending Seattle Center
Sat 02:18:39 PM 47.6011 -117.6017 83° East 161 185 3,300 -634 Descending Seattle Center
Sat 02:19:41 PM 47.6267 -117.5597 48° Northeast 135 155 3,000 -293 Descending Seattle Center
Sat 02:20:42 PM 47.6486 -117.5272 45° Northeast 114 131 2,700 -295 Descending Seattle Center
Sat 02:21:43 PM 47.6356 -117.5125 143° Southeast 96 110 2,400 -197 Descending Seattle Center
Sat 02:22:44 PM 47.6242 -117.5325 230° Southwest 79 91 2,300 -98 Descending Seattle Center
Sat 02:24:00 PM 47.6167 -117.5333 214° Southwest  Level FlightAware Approximate

Login

Don't have an account? Register now (free) for customized features, flight alerts, and more!